Time;durP1;ratioP1;P1;durP2;ratioP2;P2;SDS_P1;SDS_P2;PMS_P1;PMS_P2;Temp;Humidity;BMP_temperature;BMP_pressure;BME280_temperature;BME280_humidity;BME280_pressure;Samples;Min_cycle;Max_cycle;Signal;HPM_P1;HPM_P2
2023/06/17 00:00:39;;;;;;;32.20;28.85;;;15.80;99.90;;;;;;5012585;28;20132;-65
2023/06/17 00:03:04;;;;;;;31.20;27.45;;;16.10;99.90;;;;;;5010485;28;20049;-63
2023/06/17 00:05:30;;;;;;;30.83;28.05;;;15.80;99.90;;;;;;5012783;28;20496;-64
2023/06/17 00:07:56;;;;;;;31.33;28.13;;;16.00;99.90;;;;;;5012634;28;20053;-64
2023/06/17 00:10:21;;;;;;;31.83;28.55;;;15.80;99.90;;;;;;5012642;28;20072;-65
2023/06/17 00:12:48;;;;;;;30.38;27.58;;;15.80;99.90;;;;;;5012198;28;20041;-64
2023/06/17 00:15:16;;;;;;;32.35;29.05;;;15.80;99.90;;;;;;5011781;28;20092;-65
2023/06/17 00:17:46;;;;;;;32.53;29.08;;;16.00;99.90;;;;;;5011340;28;20030;-65
2023/06/17 00:20:12;;;;;;;31.50;28.50;;;15.80;99.90;;;;;;5012252;28;20429;-65
2023/06/17 00:22:39;;;;;;;31.92;28.58;;;16.20;99.90;;;;;;5012330;28;20124;-64
2023/06/17 00:25:05;;;;;;;31.73;28.73;;;15.90;99.90;;;;;;5012497;28;20041;-63
2023/06/17 00:27:31;;;;;;;31.83;28.80;;;16.10;99.90;;;;;;5012668;28;20133;-63
2023/06/17 00:29:59;;;;;;;42.83;31.65;;;16.00;99.90;;;;;;5012158;28;20465;-65
2023/06/17 00:32:26;;;;;;;35.30;31.90;;;15.60;99.90;;;;;;5012234;28;20075;-63
2023/06/17 00:34:52;;;;;;;35.38;31.88;;;15.80;99.90;;;;;;5012162;28;20121;-63
2023/06/17 00:37:17;;;;;;;34.72;31.25;;;15.50;99.90;;;;;;5011289;28;20136;-63
2023/06/17 00:39:43;;;;;;;37.05;33.05;;;15.40;99.90;;;;;;5012112;28;20042;-64
2023/06/17 00:42:11;;;;;;;36.70;32.78;;;15.70;99.90;;;;;;5010487;28;20064;-64
2023/06/17 00:44:39;;;;;;;35.55;31.70;;;15.70;99.90;;;;;;5011547;28;20084;-65
2023/06/17 00:47:06;;;;;;;34.85;31.88;;;15.50;99.90;;;;;;5010956;28;20050;-64
2023/06/17 00:49:40;;;;;;;36.42;32.72;;;15.50;99.90;;;;;;5011960;28;20077;-65
2023/06/17 00:52:10;;;;;;;37.17;33.17;;;15.50;99.90;;;;;;5011779;28;20037;-65
2023/06/17 00:54:41;;;;;;;35.83;32.35;;;15.50;99.90;;;;;;5011861;28;20457;-65
2023/06/17 00:57:09;;;;;;;37.53;31.60;;;16.00;99.90;;;;;;5011966;28;20694;-65
2023/06/17 00:59:37;;;;;;;38.42;32.78;;;15.90;99.90;;;;;;5010581;28;20042;-64
2023/06/17 01:02:04;;;;;;;34.88;31.55;;;15.60;99.90;;;;;;5011109;28;20041;-64
2023/06/17 01:04:31;;;;;;;34.53;30.85;;;15.70;99.90;;;;;;5011570;28;20038;-63
2023/06/17 01:07:09;;;;;;;33.55;30.10;;;15.60;99.90;;;;;;5011470;28;20499;-65
2023/06/17 01:09:40;;;;;;;34.47;31.08;;;15.50;99.90;;;;;;5011571;28;20045;-65
2023/06/17 01:12:08;;;;;;;36.40;32.05;;;15.80;99.90;;;;;;5011471;28;20049;-64
2023/06/17 01:14:35;;;;;;;34.83;31.45;;;15.30;99.90;;;;;;5010849;28;20342;-65
2023/06/17 01:17:03;;;;;;;34.40;31.08;;;15.50;99.90;;;;;;5010065;28;20046;-64
2023/06/17 01:19:29;;;;;;;36.00;31.42;;;15.20;99.90;;;;;;5011413;28;20052;-65
2023/06/17 01:21:56;;;;;;;35.33;30.98;;;15.20;99.90;;;;;;5009562;28;20495;-64
2023/06/17 01:24:27;;;;;;;33.00;29.45;;;15.10;99.90;;;;;;5010850;28;20041;-64
2023/06/17 01:26:56;;;;;;;33.45;30.08;;;15.60;99.90;;;;;;5010963;28;20073;-64
2023/06/17 01:29:23;;;;;;;35.28;30.73;;;15.00;99.90;;;;;;5011271;28;20054;-65
2023/06/17 01:31:57;;;;;;;34.38;30.67;;;15.50;99.90;;;;;;5011134;28;20548;-64
2023/06/17 01:34:39;;;;;;;33.83;30.33;;;15.00;99.90;;;;;;5010817;28;20497;-64
2023/06/17 01:37:13;;;;;;;31.83;28.58;;;15.60;99.90;;;;;;5010750;28;20125;-65
2023/06/17 01:39:44;;;;;;;34.13;30.55;;;15.70;99.90;;;;;;5011232;28;20413;-63
2023/06/17 01:42:18;;;;;;;33.95;30.50;;;15.30;99.90;;;;;;5010701;28;20042;-64
2023/06/17 01:44:46;;;;;;;34.47;30.38;;;15.80;99.90;;;;;;5010843;28;20145;-64
2023/06/17 01:47:12;;;;;;;33.38;29.73;;;15.70;99.90;;;;;;5009960;28;20062;-65
2023/06/17 01:49:38;;;;;;;33.80;30.48;;;15.80;99.90;;;;;;5009962;28;20070;-65
2023/06/17 01:52:04;;;;;;;32.47;29.17;;;15.30;99.90;;;;;;5010751;28;20042;-65
2023/06/17 01:54:30;;;;;;;35.75;28.80;;;15.30;99.90;;;;;;5010024;28;20072;-64
2023/06/17 01:56:55;;;;;;;37.92;30.90;;;15.70;99.90;;;;;;5010751;28;20111;-64
2023/06/17 01:59:21;;;;;;;33.10;29.58;;;15.60;99.90;;;;;;5009947;28;20424;-64
2023/06/17 02:01:46;;;;;;;34.75;31.42;;;15.60;99.90;;;;;;5010368;28;20045;-64
2023/06/17 02:04:12;;;;;;;36.88;30.50;;;15.50;99.90;;;;;;5010076;28;20037;-64
2023/06/17 02:06:38;;;;;;;34.10;30.52;;;15.00;99.90;;;;;;5009375;28;20042;-64
2023/06/17 02:09:04;;;;;;;33.90;30.50;;;15.50;99.90;;;;;;5010377;28;20034;-64
2023/06/17 02:11:30;;;;;;;38.00;31.55;;;15.00;99.90;;;;;;5010609;28;20038;-64
2023/06/17 02:13:55;;;;;;;33.67;30.05;;;15.50;99.90;;;;;;5010212;28;20048;-64
2023/06/17 02:16:21;;;;;;;33.03;29.67;;;15.60;99.90;;;;;;5005850;28;20045;-63
2023/06/17 02:18:48;;;;;;;34.00;30.42;;;15.60;99.90;;;;;;5007919;28;20425;-65
2023/06/17 02:21:14;;;;;;;38.75;32.13;;;15.20;99.90;;;;;;5010646;28;20124;-64
2023/06/17 02:23:40;;;;;;;34.25;30.67;;;15.10;99.90;;;;;;5010488;28;20124;-63
2023/06/17 02:26:05;;;;;;;34.65;30.00;;;15.50;99.90;;;;;;5010568;28;20045;-64
2023/06/17 02:28:31;;;;;;;34.58;30.88;;;15.00;99.90;;;;;;5010235;28;20113;-65
2023/06/17 02:30:56;;;;;;;32.95;29.67;;;15.00;99.90;;;;;;5008868;28;20065;-65
2023/06/17 02:33:22;;;;;;;33.25;29.65;;;15.40;99.90;;;;;;5009799;28;20049;-64
2023/06/17 02:35:48;;;;;;;32.90;29.75;;;15.20;99.90;;;;;;5010274;28;20084;-64
2023/06/17 02:38:14;;;;;;;42.97;30.75;;;15.50;99.90;;;;;;5010334;28;20069;-65
2023/06/17 02:40:40;;;;;;;34.50;30.80;;;15.60;99.90;;;;;;5010439;28;20053;-64
2023/06/17 02:43:06;;;;;;;35.35;30.40;;;15.60;99.90;;;;;;5010003;28;20067;-65
2023/06/17 02:45:31;;;;;;;38.88;32.42;;;15.90;99.90;;;;;;5009806;28;20049;-64
2023/06/17 02:47:57;;;;;;;33.95;30.48;;;15.60;99.90;;;;;;5009418;28;20041;-65
2023/06/17 02:50:23;;;;;;;34.33;31.00;;;15.50;99.90;;;;;;5007429;28;20103;-65
2023/06/17 02:52:55;;;;;;;38.85;33.33;;;15.90;99.90;;;;;;5005773;28;20049;-65
2023/06/17 02:55:21;;;;;;;36.65;32.75;;;16.00;99.90;;;;;;4991478;28;20424;-65
2023/06/17 02:57:47;;;;;;;36.28;32.65;;;15.60;99.90;;;;;;4993011;28;20077;-65
2023/06/17 03:00:13;;;;;;;35.90;31.95;;;15.70;99.90;;;;;;5009820;28;20092;-64
2023/06/17 03:02:39;;;;;;;36.47;32.63;;;16.00;99.90;;;;;;5007365;28;20041;-65
2023/06/17 03:05:06;;;;;;;35.60;32.17;;;16.30;99.90;;;;;;5009414;28;20037;-65
2023/06/17 03:07:35;;;;;;;36.40;30.80;;;16.00;99.90;;;;;;5011614;28;20064;-65
2023/06/17 03:10:04;;;;;;;36.35;32.70;;;16.40;99.90;;;;;;4994007;28;20046;-64
2023/06/17 03:12:30;;;;;;;34.58;30.92;;;16.00;99.90;;;;;;4992952;28;20334;-65
2023/06/17 03:14:57;;;;;;;33.40;29.80;;;15.90;99.90;;;;;;5012775;28;20165;-65
2023/06/17 03:17:24;;;;;;;32.00;28.65;;;16.20;99.90;;;;;;5012455;28;20038;-64
2023/06/17 03:19:50;;;;;;;31.63;27.58;;;16.10;99.90;;;;;;5012585;28;20041;-64
2023/06/17 03:22:16;;;;;;;34.22;30.80;;;16.00;99.90;;;;;;5012429;28;20384;-65
2023/06/17 03:24:41;;;;;;;35.17;31.48;;;16.40;99.90;;;;;;5011983;28;20046;-64
2023/06/17 03:27:07;;;;;;;35.35;31.58;;;16.60;99.90;;;;;;5013198;28;20042;-64
2023/06/17 03:29:35;;;;;;;35.33;31.77;;;16.60;99.90;;;;;;5013365;28;20484;-64
2023/06/17 03:32:01;;;;;;;37.42;33.42;;;16.40;99.90;;;;;;5013205;28;20567;-64
2023/06/17 03:34:26;;;;;;;40.90;33.63;;;16.10;99.90;;;;;;5012694;28;20088;-64
2023/06/17 03:36:52;;;;;;;38.50;34.50;;;17.10;99.90;;;;;;5013342;28;20045;-65
2023/06/17 03:39:18;;;;;;;35.40;31.60;;;16.10;99.90;;;;;;5013060;28;20037;-64
2023/06/17 03:41:44;;;;;;;37.08;33.25;;;16.10;99.90;;;;;;5013090;28;20037;-64
2023/06/17 03:44:10;;;;;;;34.03;30.80;;;16.20;99.90;;;;;;5012999;28;20042;-64
2023/06/17 03:46:35;;;;;;;33.78;30.48;;;16.60;99.90;;;;;;5011569;28;20046;-64
2023/06/17 03:49:02;;;;;;;34.45;31.23;;;16.10;99.90;;;;;;5011632;28;20030;-64
2023/06/17 03:51:28;;;;;;;34.80;31.55;;;16.60;99.90;;;;;;5013099;28;20041;-64
2023/06/17 03:53:53;;;;;;;33.42;29.98;;;16.60;99.90;;;;;;5012986;28;20052;-64
2023/06/17 03:56:19;;;;;;;35.88;32.28;;;16.10;99.90;;;;;;5013099;28;20045;-65
2023/06/17 03:58:44;;;;;;;34.80;31.52;;;16.10;99.90;;;;;;5012476;28;20038;-65
2023/06/17 04:01:12;;;;;;;35.85;31.75;;;16.60;99.90;;;;;;5012686;28;20050;-65
2023/06/17 04:03:40;;;;;;;36.13;32.55;;;16.50;99.90;;;;;;5011745;28;20045;-65
2023/06/17 04:06:06;;;;;;;34.60;30.67;;;16.70;99.90;;;;;;5012729;28;20168;-65
2023/06/17 04:08:33;;;;;;;33.83;30.42;;;16.50;99.90;;;;;;5012852;28;20527;-64
2023/06/17 04:10:59;;;;;;;35.05;31.40;;;16.50;99.90;;;;;;5012799;28;20049;-65
2023/06/17 04:13:25;;;;;;;36.55;32.60;;;16.30;99.90;;;;;;5012254;28;20074;-63
2023/06/17 04:15:50;;;;;;;34.72;31.13;;;16.30;99.90;;;;;;5016072;28;20160;-65
2023/06/17 04:18:16;;;;;;;35.70;31.90;;;16.70;99.90;;;;;;5012363;28;20476;-64
2023/06/17 04:20:42;;;;;;;34.30;30.83;;;16.20;99.90;;;;;;5012233;28;20049;-64
2023/06/17 04:23:07;;;;;;;35.17;31.50;;;16.60;99.90;;;;;;5012278;28;20040;-65
2023/06/17 04:25:36;;;;;;;33.67;30.42;;;16.20;99.90;;;;;;5012332;28;20121;-64
2023/06/17 04:28:07;;;;;;;33.65;30.35;;;16.30;99.90;;;;;;5012181;28;20076;-65
2023/06/17 04:30:33;;;;;;;35.38;31.60;;;16.10;99.90;;;;;;5011884;28;20080;-65
2023/06/17 04:32:59;;;;;;;37.58;31.85;;;16.20;99.90;;;;;;5012444;28;20381;-64
2023/06/17 04:35:29;;;;;;;33.65;30.35;;;16.30;99.90;;;;;;5010608;28;20439;-65
2023/06/17 04:37:55;;;;;;;33.92;30.60;;;16.20;99.90;;;;;;5010894;28;20045;-65
2023/06/17 04:40:22;;;;;;;36.22;32.28;;;16.70;99.90;;;;;;5010625;28;20487;-65
2023/06/17 04:42:49;;;;;;;41.65;32.67;;;16.70;99.90;;;;;;5011989;28;20533;-64
2023/06/17 04:45:16;;;;;;;33.92;30.80;;;16.90;99.90;;;;;;5011497;28;20054;-65
2023/06/17 04:47:42;;;;;;;33.35;29.83;;;16.30;99.90;;;;;;5012176;28;20069;-64
2023/06/17 04:50:07;;;;;;;34.83;31.23;;;16.90;99.90;;;;;;5011417;28;20425;-64
2023/06/17 04:52:33;;;;;;;34.15;30.17;;;16.30;99.90;;;;;;5011817;28;20125;-64
2023/06/17 04:54:59;;;;;;;34.10;30.83;;;16.30;99.90;;;;;;5011534;28;20041;-65
2023/06/17 04:57:25;;;;;;;34.42;30.83;;;16.90;99.90;;;;;;5009999;28;20034;-64
2023/06/17 04:59:50;;;;;;;33.97;30.45;;;16.30;99.90;;;;;;5011370;28;20381;-65
2023/06/17 05:02:16;;;;;;;34.78;31.38;;;15.70;99.90;;;;;;5011304;28;20480;-64
2023/06/17 05:04:41;;;;;;;34.15;30.48;;;16.90;99.90;;;;;;5011588;28;20096;-64
2023/06/17 05:07:07;;;;;;;33.85;30.52;;;17.00;99.90;;;;;;5011534;28;20073;-64
2023/06/17 05:09:33;;;;;;;34.38;30.88;;;16.60;99.90;;;;;;5010380;28;20078;-65
2023/06/17 05:11:58;;;;;;;35.65;30.52;;;16.70;99.90;;;;;;5011942;28;20583;-64
2023/06/17 05:14:24;;;;;;;33.13;29.83;;;16.50;99.90;;;;;;5011462;28;20077;-64
2023/06/17 05:16:49;;;;;;;32.40;28.92;;;16.60;99.90;;;;;;5011512;28;20115;-64
2023/06/17 05:19:15;;;;;;;32.45;28.98;;;17.30;99.90;;;;;;5011589;28;20042;-64
2023/06/17 05:21:40;;;;;;;33.67;30.48;;;16.60;99.90;;;;;;5011179;28;20507;-65
2023/06/17 05:24:06;;;;;;;33.78;29.88;;;16.60;99.90;;;;;;5011273;28;20436;-65
2023/06/17 05:26:32;;;;;;;32.53;29.27;;;17.10;99.90;;;;;;5011258;28;20480;-64
2023/06/17 05:28:57;;;;;;;34.22;29.92;;;17.20;99.90;;;;;;5009128;28;20052;-64
2023/06/17 05:31:23;;;;;;;32.42;29.38;;;16.80;99.90;;;;;;5011056;28;20046;-64
2023/06/17 05:33:48;;;;;;;33.35;30.38;;;17.80;99.90;;;;;;5010993;28;20128;-64
2023/06/17 05:36:14;;;;;;;35.13;31.38;;;17.30;99.90;;;;;;5011016;28;20073;-65
2023/06/17 05:38:40;;;;;;;34.00;30.67;;;17.00;99.90;;;;;;5010581;28;20057;-64
2023/06/17 05:41:06;;;;;;;33.55;30.20;;;17.30;99.90;;;;;;5011046;28;20046;-65
2023/06/17 05:43:31;;;;;;;34.15;30.98;;;17.70;99.90;;;;;;5010825;28;20474;-64
2023/06/17 05:45:57;;;;;;;35.33;31.90;;;17.20;99.90;;;;;;5010608;28;20575;-64
2023/06/17 05:48:23;;;;;;;33.83;30.60;;;17.20;99.90;;;;;;5011060;28;20064;-64
2023/06/17 05:50:48;;;;;;;35.28;31.50;;;17.60;99.90;;;;;;5010499;28;20129;-64
2023/06/17 05:53:15;;;;;;;35.47;31.85;;;17.50;99.90;;;;;;5010858;28;20048;-64
2023/06/17 05:55:40;;;;;;;34.97;31.58;;;17.70;99.90;;;;;;5010700;28;20055;-64
2023/06/17 05:58:06;;;;;;;34.40;31.05;;;17.90;99.90;;;;;;5010565;28;20112;-64
2023/06/17 06:00:31;;;;;;;33.80;30.50;;;17.50;99.90;;;;;;5010269;28;20104;-64
2023/06/17 06:02:57;;;;;;;34.53;30.80;;;17.70;99.90;;;;;;5009349;28;20125;-64
2023/06/17 06:05:23;;;;;;;34.33;30.88;;;17.90;99.90;;;;;;5008968;28;20451;-64
2023/06/17 06:07:48;;;;;;;34.63;31.20;;;18.00;99.90;;;;;;5010545;28;20500;-64
2023/06/17 06:10:15;;;;;;;34.33;30.88;;;17.70;99.90;;;;;;5009255;28;20056;-64
2023/06/17 06:12:43;;;;;;;33.88;30.60;;;17.70;99.90;;;;;;5010562;28;20073;-64
2023/06/17 06:15:09;;;;;;;35.88;32.15;;;18.00;99.90;;;;;;5010559;28;20093;-64
2023/06/17 06:17:34;;;;;;;34.50;30.73;;;17.70;99.90;;;;;;5010406;28;20066;-63
2023/06/17 06:20:00;;;;;;;34.65;31.30;;;18.00;99.90;;;;;;5010063;28;20417;-64
2023/06/17 06:22:26;;;;;;;35.17;31.77;;;17.90;99.90;;;;;;5010158;28;20026;-64
2023/06/17 06:24:51;;;;;;;35.22;31.95;;;18.10;99.90;;;;;;5010084;28;20074;-64
2023/06/17 06:27:17;;;;;;;36.88;32.95;;;17.70;99.90;;;;;;5009145;28;20046;-64
2023/06/17 06:29:42;;;;;;;37.65;33.05;;;17.70;99.90;;;;;;5009999;28;20049;-64
2023/06/17 06:32:08;;;;;;;35.70;31.98;;;17.70;99.90;;;;;;5008953;28;20053;-64
2023/06/17 06:34:34;;;;;;;36.65;33.25;;;17.70;99.90;;;;;;5008729;28;20380;-64
2023/06/17 06:37:00;;;;;;;37.90;33.92;;;18.20;99.90;;;;;;5009001;28;20488;-64
2023/06/17 06:39:26;;;;;;;36.35;32.58;;;17.90;99.90;;;;;;5009879;28;20096;-64
2023/06/17 06:41:52;;;;;;;36.95;33.03;;;18.00;99.90;;;;;;5013228;28;20088;-64
2023/06/17 06:44:18;;;;;;;36.28;32.50;;;18.10;99.90;;;;;;5014068;28;20046;-64
2023/06/17 06:46:45;;;;;;;35.85;32.05;;;18.00;99.90;;;;;;5012607;28;20489;-64
2023/06/17 06:49:10;;;;;;;34.83;31.33;;;18.30;99.90;;;;;;5014998;28;20120;-64
2023/06/17 06:51:36;;;;;;;35.85;32.40;;;18.40;99.90;;;;;;5012833;28;20511;-64
2023/06/17 06:54:02;;;;;;;35.97;32.50;;;18.40;99.90;;;;;;5007501;28;20042;-64
2023/06/17 06:56:28;;;;;;;37.50;33.53;;;18.70;99.90;;;;;;5015867;28;20534;-64
2023/06/17 06:58:56;;;;;;;38.38;34.40;;;18.70;99.90;;;;;;5005687;28;20033;-64
2023/06/17 07:01:22;;;;;;;37.55;33.90;;;18.60;99.90;;;;;;5016475;28;20053;-64
2023/06/17 07:03:48;;;;;;;37.20;33.72;;;18.50;89.20;;;;;;5011624;28;20054;-64
2023/06/17 07:06:13;;;;;;;37.47;33.78;;;18.40;1.00;;;;;;5010835;28;20428;-64
2023/06/17 07:08:39;;;;;;;37.95;33.88;;;18.40;99.90;;;;;;5011701;28;20077;-64
2023/06/17 07:11:05;;;;;;;37.83;34.13;;;18.50;65.10;;;;;;5009724;28;20049;-64
2023/06/17 07:13:31;;;;;;;37.35;33.50;;;18.80;1.00;;;;;;5008717;28;20045;-64
2023/06/17 07:15:56;;;;;;;37.50;34.15;;;18.70;1.00;;;;;;5009436;28;20090;-64
2023/06/17 07:18:22;;;;;;;37.78;33.97;;;18.90;99.90;;;;;;5010169;28;20081;-64
2023/06/17 07:20:48;;;;;;;34.53;31.13;;;18.70;1.00;;;;;;5012869;28;20042;-64
2023/06/17 07:23:13;;;;;;;35.17;31.80;;;18.90;99.90;;;;;;5012282;28;20026;-64
2023/06/17 07:25:39;;;;;;;37.65;34.22;;;19.20;99.90;;;;;;5008491;28;20036;-64
2023/06/17 07:28:05;;;;;;;36.95;32.83;;;19.40;1.00;;;;;;5009785;28;20147;-64
2023/06/17 07:30:31;;;;;;;35.83;32.25;;;19.70;99.90;;;;;;5011216;28;20049;-64
2023/06/17 07:32:56;;;;;;;35.63;32.35;;;19.80;99.90;;;;;;5009325;28;20495;-64
2023/06/17 07:35:22;;;;;;;37.50;34.15;;;19.70;99.90;;;;;;5008256;28;20046;-64
2023/06/17 07:37:51;;;;;;;36.63;33.35;;;19.60;99.90;;;;;;5011800;28;20041;-64
2023/06/17 07:40:17;;;;;;;39.80;36.03;;;19.60;45.20;;;;;;5012448;28;20503;-64
2023/06/17 07:42:43;;;;;;;39.38;35.72;;;19.70;1.00;;;;;;5012765;28;20129;-64
2023/06/17 07:45:09;;;;;;;39.28;35.63;;;19.50;99.90;;;;;;5011385;28;20049;-64
2023/06/17 07:47:35;;;;;;;38.13;34.72;;;19.70;99.90;;;;;;5010749;28;20408;-64
2023/06/17 07:50:00;;;;;;;37.42;33.58;;;19.60;46.00;;;;;;5012754;28;20060;-64
2023/06/17 07:52:26;;;;;;;37.47;33.90;;;19.70;1.00;;;;;;5011229;28;20074;-64
2023/06/17 07:54:52;;;;;;;41.22;36.92;;;19.70;99.90;;;;;;5007884;28;20038;-64
2023/06/17 07:57:18;;;;;;;39.70;35.50;;;19.60;99.90;;;;;;5009271;28;20053;-64
2023/06/17 07:59:44;;;;;;;38.58;34.85;;;19.80;99.90;;;;;;5009287;28;20377;-65
2023/06/17 08:02:10;;;;;;;36.60;33.35;;;19.80;99.90;;;;;;5007254;28;20045;-64
2023/06/17 08:04:36;;;;;;;37.83;34.20;;;19.90;99.90;;;;;;5011663;28;20030;-64
2023/06/17 08:07:03;;;;;;;34.22;31.23;;;20.20;1.00;;;;;;5012182;28;20038;-64
2023/06/17 08:09:28;;;;;;;35.00;31.73;;;20.30;1.00;;;;;;5011909;28;20044;-64
2023/06/17 08:11:54;;;;;;;35.38;32.20;;;20.60;1.00;;;;;;5009795;28;20268;-64
2023/06/17 08:14:20;;;;;;;35.50;32.15;;;20.70;99.90;;;;;;5011119;28;20125;-64
2023/06/17 08:16:45;;;;;;;35.78;32.40;;;20.70;99.90;;;;;;5011190;28;20045;-64
2023/06/17 08:19:12;;;;;;;36.60;33.50;;;20.60;99.90;;;;;;5008511;28;20480;-64
2023/06/17 08:21:38;;;;;;;35.15;31.83;;;20.50;7.30;;;;;;5011743;28;20385;-64
2023/06/17 08:24:24;;;;;;;33.85;30.85;;;20.50;1.00;;;;;;5007448;28;20029;-64
2023/06/17 08:26:51;;;;;;;36.17;32.85;;;20.80;1.00;;;;;;4987935;28;20476;-64
2023/06/17 08:29:17;;;;;;;34.40;31.08;;;20.90;1.00;;;;;;4997837;28;20471;-64
2023/06/17 08:31:50;;;;;;;34.88;31.63;;;21.00;1.00;;;;;;5010778;28;20488;-63
2023/06/17 08:34:16;;;;;;;33.47;30.13;;;21.00;1.00;;;;;;5004910;28;20070;-63
2023/06/17 08:36:43;;;;;;;32.33;28.88;;;21.10;99.90;;;;;;5004922;28;20449;-63
2023/06/17 08:39:09;;;;;;;36.08;32.70;;;21.40;99.90;;;;;;5024021;28;20081;-63
2023/06/17 08:41:40;;;;;;;37.15;33.72;;;21.40;99.90;;;;;;5009362;28;20049;-63
2023/06/17 08:44:08;;;;;;;36.78;33.10;;;21.20;99.90;;;;;;5017421;28;20065;-63
2023/06/17 08:46:34;;;;;;;32.45;29.35;;;21.10;99.90;;;;;;5011773;28;20093;-63
2023/06/17 08:49:02;;;;;;;31.05;28.08;;;21.20;99.90;;;;;;5011067;28;20575;-63
2023/06/17 08:51:28;;;;;;;32.10;29.00;;;21.50;99.90;;;;;;5010969;28;20049;-63
2023/06/17 08:53:55;;;;;;;35.35;31.90;;;21.70;81.50;;;;;;5001516;28;20512;-63
2023/06/17 08:56:20;;;;;;;34.30;31.00;;;21.80;20.90;;;;;;5011367;28;20699;-60
2023/06/17 08:58:47;;;;;;;35.60;31.80;;;22.00;1.00;;;;;;5010402;28;20165;-60
2023/06/17 09:01:13;;;;;;;31.25;28.48;;;21.70;1.00;;;;;;5007819;28;20046;-60
2023/06/17 09:03:43;;;;;;;33.30;30.15;;;21.80;1.00;;;;;;4997248;28;20643;-60
2023/06/17 09:06:27;;;;;;;34.92;31.58;;;22.00;1.00;;;;;;5004235;28;20042;-60
2023/06/17 09:08:54;;;;;;;37.67;30.83;;;22.00;1.00;;;;;;5008467;28;20038;-60
2023/06/17 09:11:30;;;;;;;32.92;29.95;;;21.80;1.00;;;;;;5007833;28;20083;-60
2023/06/17 09:13:59;;;;;;;34.58;31.15;;;22.10;1.00;;;;;;5005997;28;20147;-59
2023/06/17 09:16:30;;;;;;;33.20;30.05;;;21.90;1.00;;;;;;5007195;28;20034;-61
2023/06/17 09:19:01;;;;;;;34.40;31.17;;;22.10;1.00;;;;;;5007501;28;20064;-60
2023/06/17 09:21:27;;;;;;;36.90;33.17;;;22.00;1.00;;;;;;5011394;28;20038;-60
2023/06/17 09:24:04;;;;;;;35.42;31.98;;;22.10;1.00;;;;;;5010498;28;20030;-61
2023/06/17 09:26:31;;;;;;;32.83;29.70;;;22.20;1.00;;;;;;5008777;28;20037;-60
2023/06/17 09:29:05;;;;;;;32.72;29.67;;;22.40;1.00;;;;;;5010215;28;20071;-62
2023/06/17 09:31:31;;;;;;;33.08;29.75;;;22.40;99.90;;;;;;5009407;28;20045;-62
2023/06/17 09:34:02;;;;;;;31.52;28.75;;;22.30;99.90;;;;;;5010417;28;20038;-61
2023/06/17 09:36:28;;;;;;;37.78;34.22;;;22.40;99.90;;;;;;5010809;28;20049;-61
2023/06/17 09:38:54;;;;;;;34.60;31.50;;;22.20;99.90;;;;;;5010451;28;20045;-61
2023/06/17 09:41:23;;;;;;;33.58;30.10;;;22.20;99.90;;;;;;5009246;28;20038;-60
2023/06/17 09:43:53;;;;;;;36.03;32.38;;;22.20;99.90;;;;;;5007157;28;20045;-61
2023/06/17 09:46:24;;;;;;;34.15;30.92;;;22.30;99.90;;;;;;5009403;28;20054;-61
2023/06/17 09:48:51;;;;;;;34.90;31.60;;;22.40;99.90;;;;;;5010237;28;20042;-61
2023/06/17 09:51:21;;;;;;;37.05;33.50;;;22.30;99.90;;;;;;5007132;28;20045;-61
2023/06/17 09:53:49;;;;;;;36.78;33.53;;;22.20;99.90;;;;;;5009694;28;20049;-60
2023/06/17 09:56:15;;;;;;;33.30;29.98;;;22.10;99.90;;;;;;5006568;28;20136;-60
2023/06/17 09:58:42;;;;;;;36.55;33.15;;;21.90;99.90;;;;;;5008399;28;20037;-61
2023/06/17 10:01:09;;;;;;;37.33;33.95;;;22.00;99.90;;;;;;5009266;28;20057;-61
2023/06/17 10:03:37;;;;;;;39.03;35.20;;;22.00;99.90;;;;;;5024333;28;20452;-60
2023/06/17 10:06:09;;;;;;;38.42;34.35;;;21.70;99.90;;;;;;5007650;28;20135;-61
2023/06/17 10:08:43;;;;;;;32.58;29.52;;;21.60;99.90;;;;;;5006834;28;20033;-60
2023/06/17 10:11:12;;;;;;;33.38;30.27;;;21.50;99.90;;;;;;5009185;28;20042;-60
2023/06/17 10:13:40;;;;;;;35.65;32.20;;;21.60;1.00;;;;;;5009249;28;20038;-62
2023/06/17 10:16:12;;;;;;;31.95;29.05;;;21.50;1.00;;;;;;5006585;28;20134;-60
2023/06/17 10:18:41;;;;;;;33.03;30.13;;;21.60;1.00;;;;;;5009748;28;20444;-60
2023/06/17 10:21:11;;;;;;;33.45;30.17;;;21.50;1.00;;;;;;4998541;28;20542;-60
2023/06/17 10:23:38;;;;;;;32.97;29.75;;;21.50;99.90;;;;;;5008167;28;20034;-60
2023/06/17 10:26:05;;;;;;;31.08;28.25;;;21.70;99.90;;;;;;5009394;28;20046;-60
2023/06/17 10:28:53;;;;;;;33.65;30.65;;;21.50;99.90;;;;;;5009538;28;20046;-60
2023/06/17 10:31:29;;;;;;;32.42;29.10;;;21.50;99.90;;;;;;5008293;28;20038;-60
2023/06/17 10:33:57;;;;;;;31.85;28.95;;;21.60;99.90;;;;;;5008778;28;20512;-61
2023/06/17 10:36:24;;;;;;;32.28;29.10;;;21.60;99.90;;;;;;5009248;28;20420;-60
2023/06/17 10:39:19;;;;;;;30.77;28.05;;;21.70;99.90;;;;;;5009473;28;20454;-60
2023/06/17 10:41:48;;;;;;;32.05;29.25;;;21.70;99.90;;;;;;5003667;28;20126;-60
2023/06/17 10:44:39;;;;;;;32.63;29.52;;;21.90;99.90;;;;;;5010062;28;20038;-60
2023/06/17 10:47:22;;;;;;;38.25;34.67;;;22.00;99.90;;;;;;5009727;28;20466;-60
2023/06/17 10:49:51;;;;;;;33.42;30.23;;;22.00;99.90;;;;;;5008452;28;20121;-60
2023/06/17 10:52:17;;;;;;;33.15;29.77;;;22.00;99.90;;;;;;4997374;28;20040;-60
2023/06/17 10:54:51;;;;;;;32.55;29.38;;;22.10;99.90;;;;;;5001795;28;20477;-61
2023/06/17 10:57:32;;;;;;;33.78;30.45;;;22.10;99.90;;;;;;5008172;28;20046;-60
2023/06/17 11:00:08;;;;;;;32.83;29.60;;;22.20;99.90;;;;;;5009527;28;20057;-60
2023/06/17 11:02:34;;;;;;;31.63;28.75;;;22.20;99.90;;;;;;5003844;28;20444;-60
2023/06/17 11:05:01;;;;;;;33.83;30.58;;;22.30;99.90;;;;;;4998952;28;20712;-60
2023/06/17 11:07:27;;;;;;;34.20;30.80;;;22.40;99.90;;;;;;5005943;28;20050;-60
2023/06/17 11:09:53;;;;;;;35.15;31.98;;;22.40;99.90;;;;;;5008124;28;20045;-60
2023/06/17 11:12:19;;;;;;;31.70;28.80;;;22.40;99.90;;;;;;5009390;28;20380;-60
2023/06/17 11:14:45;;;;;;;32.35;29.45;;;22.30;99.90;;;;;;5007233;28;20443;-60
2023/06/17 11:17:11;;;;;;;34.40;31.17;;;22.10;99.90;;;;;;4997796;28;20041;-60
2023/06/17 11:19:36;;;;;;;30.95;27.95;;;22.30;99.90;;;;;;5004432;28;20547;-60
2023/06/17 11:22:03;;;;;;;30.40;27.23;;;22.50;99.90;;;;;;4998163;28;20053;-60
2023/06/17 11:24:32;;;;;;;30.98;27.88;;;22.70;99.90;;;;;;5008293;28;20127;-60
2023/06/17 11:26:59;;;;;;;28.52;25.70;;;22.80;99.90;;;;;;5008728;28;20042;-60
2023/06/17 11:29:29;;;;;;;36.53;33.05;;;22.90;99.90;;;;;;5013315;28;20140;-60
2023/06/17 11:31:58;;;;;;;35.25;31.63;;;22.80;99.90;;;;;;5012873;28;20824;-61
2023/06/17 11:34:24;;;;;;;33.42;30.23;;;22.80;99.90;;;;;;5009207;28;20434;-60
2023/06/17 11:36:54;;;;;;;35.80;32.58;;;22.60;99.90;;;;;;5012175;28;20400;-59
2023/06/17 11:39:23;;;;;;;31.85;28.83;;;22.50;99.90;;;;;;5009632;28;20084;-60
2023/06/17 11:41:51;;;;;;;32.88;29.67;;;22.60;99.90;;;;;;5012226;28;20050;-60
2023/06/17 11:44:18;;;;;;;32.75;29.70;;;22.70;99.90;;;;;;5012525;28;20077;-60
2023/06/17 11:46:43;;;;;;;36.47;33.08;;;22.80;99.90;;;;;;5008660;28;20080;-59
2023/06/17 11:49:09;;;;;;;34.38;31.13;;;22.70;99.90;;;;;;5008964;28;20065;-59
2023/06/17 11:51:36;;;;;;;37.72;34.13;;;22.70;99.90;;;;;;5011348;28;20046;-59
2023/06/17 11:54:05;;;;;;;35.63;32.20;;;22.80;99.90;;;;;;5009753;28;20049;-60
2023/06/17 11:56:32;;;;;;;40.20;36.47;;;22.80;99.90;;;;;;5009543;28;20030;-60
2023/06/17 11:58:58;;;;;;;36.58;33.00;;;22.50;99.90;;;;;;5009658;28;20482;-59
2023/06/17 12:01:25;;;;;;;36.03;32.45;;;22.50;99.90;;;;;;5010304;28;20049;-59
2023/06/17 12:03:51;;;;;;;38.70;34.90;;;22.50;99.90;;;;;;5011655;28;20050;-59
2023/06/17 12:06:18;;;;;;;37.17;33.45;;;22.10;99.90;;;;;;5011211;28;20037;-59
2023/06/17 12:08:44;;;;;;;39.60;35.83;;;22.30;99.90;;;;;;5012214;28;20045;-59
2023/06/17 12:11:25;;;;;;;39.53;35.53;;;22.10;99.90;;;;;;5010038;28;20034;-59
2023/06/17 12:13:52;;;;;;;36.55;32.75;;;22.20;99.90;;;;;;5008673;28;20030;-60
2023/06/17 12:16:37;;;;;;;36.47;32.60;;;22.30;99.90;;;;;;5010746;28;20042;-60
2023/06/17 12:19:06;;;;;;;39.92;36.15;;;22.40;99.90;;;;;;5003841;28;21496;-59
2023/06/17 12:21:32;;;;;;;39.95;36.17;;;22.30;99.90;;;;;;5004040;28;20165;-60
2023/06/17 12:23:58;;;;;;;40.22;36.28;;;22.30;99.90;;;;;;5011007;28;20119;-59
2023/06/17 12:26:25;;;;;;;42.53;38.15;;;22.30;99.90;;;;;;5010497;28;20404;-59
2023/06/17 12:28:55;;;;;;;42.33;38.45;;;22.20;99.90;;;;;;5009887;28;20120;-60